• Join FlightAware (Why Join?)
  • Login
  • US Flag 
01:00PM EST


 

Airport Tracker/Info


-or-


 

Live Flight TrackerFlight Track Log ✈ CAV519 ✈ 28-Apr-2013 ✈ CYWG - CYFO

Flight Track Log - Related Links

Times and Time Zones

All times are in EDT time to prevent confusion due to time zone crossing. See the CAV519 flight status page for this flight to view local times or setup timezone preferences in your user account.

Time Position Orientation Groundspeed Altitude Reporting Facility
EDT Latitude Longitude Course Direction KTS MPH feet Rate Location/Type
07:38PM 49.9167 -97.2833 327° Northwest 130 150 2,000  Level Winnipeg Center
07:40PM 50.0000 -97.3000 353° North 150 173 4,300 1,080 Climbing Winnipeg Center
07:41PM 50.0333 -97.3500 316° Northwest 150 173 5,300 960 Climbing Winnipeg Center
07:42PM 50.0667 -97.3833 327° Northwest 160 184 6,300 900 Climbing Winnipeg Center
07:43PM 50.2252 -97.5085 327° Northwest  Level FlightAware Approximate
07:43PM 50.1167 -97.4167 337° Northwest 170 196 7,200  Level Winnipeg Center
07:44PM 50.1500 -97.4333 342° North 160 184 8,300 900 Climbing Winnipeg Center
07:45PM 50.1833 -97.4833 316° Northwest 170 196 9,100 900 Climbing Winnipeg Center
07:46PM 50.2333 -97.5167 337° Northwest 170 196 10,100 1,020 Climbing Winnipeg Center
07:47PM 50.2833 -97.5333 348° North 170 196 11,200 960 Climbing Winnipeg Center
07:48PM 50.3167 -97.6000 308° West 170 196 12,100 900 Climbing Winnipeg Center
07:49PM 50.3667 -97.6167 348° North 170 196 13,100 960 Climbing Winnipeg Center
07:50PM 50.4000 -97.6500 327° Northwest 160 184 14,100 900 Climbing Winnipeg Center
07:51PM 50.4500 -97.6833 337° Northwest 160 184 15,000 780 Climbing Winnipeg Center
07:52PM 50.4833 -97.7333 316° Northwest 160 184 15,700 600 Climbing Winnipeg Center
07:53PM 50.5167 -97.7500 342° North 170 196 16,300 660 Climbing Winnipeg Center
07:54PM 50.5667 -97.7833 337° Northwest 170 196 17,100 900 Climbing Winnipeg Center
07:55PM 50.6000 -97.8333 316° Northwest 170 196 18,100 780 Climbing Winnipeg Center
07:56PM 50.6500 -97.8667 337° Northwest 170 196 18,700 600 Climbing Winnipeg Center
07:57PM 50.6833 -97.8833 342° North 170 196 19,400 600 Climbing Winnipeg Center
07:58PM 50.7333 -97.9500 320° Northwest 170 196 20,000 600 Climbing Winnipeg Center
07:59PM 50.7667 -97.9667 342° North 170 196 20,600 600 Climbing Winnipeg Center
08:00PM 50.8167 -98.0000 337° Northwest 170 196 21,200 600 Climbing Winnipeg Center
08:01PM 50.8667 -98.0500 328° Northwest 170 196 21,800 540 Climbing Winnipeg Center
08:02PM 50.9000 -98.0833 328° Northwest 170 196 22,300 420 Climbing Winnipeg Center
08:03PM 50.9500 -98.1000 348° North 180 207 22,700 420 Climbing Winnipeg Center
08:04PM 50.9833 -98.1667 308° West 180 207 23,200 420 Climbing Winnipeg Center
08:05PM 51.0333 -98.1833 348° North 180 207 23,600 360 Climbing Winnipeg Center
08:06PM 51.0833 -98.2500 320° Northwest 180 207 24,000 180 Climbing Winnipeg Center
08:07PM 51.1167 -98.2667 343° North 180 207 24,000  Level Winnipeg Center
08:08PM 51.1667 -98.3000 337° Northwest 190 219 24,000  Level Winnipeg Center
08:09PM 51.2167 -98.3500 328° Northwest 200 230 24,000  Level Winnipeg Center
08:10PM 51.2667 -98.4167 320° Northwest 210 242 24,000  Level Winnipeg Center
08:11PM 51.3333 -98.4333 351° North 220 253 24,000  Level Winnipeg Center
08:12PM 51.3833 -98.5000 320° Northwest 210 242 24,000  Level Winnipeg Center
08:13PM 51.4167 -98.5500 317° Northwest 210 242 24,000  Level Winnipeg Center
08:14PM 51.4667 -98.5833 337° Northwest 210 242 24,000  Level Winnipeg Center
08:15PM 51.5167 -98.6333 328° Northwest 210 242 24,000  Level Winnipeg Center
08:16PM 51.5667 -98.6833 328° Northwest 210 242 24,000  Level Winnipeg Center
08:17PM 51.6167 -98.7167 338° Northwest 210 242 24,000  Level Winnipeg Center
08:18PM 51.6667 -98.7667 328° Northwest 210 242 24,000  Level Winnipeg Center
08:19PM 51.7167 -98.8000 338° Northwest 210 242 24,000  Level Winnipeg Center
08:20PM 51.7667 -98.8667 320° Northwest 210 242 24,000  Level Winnipeg Center
08:21PM 51.8333 -98.9167 335° Northwest 210 242 24,000  Level Winnipeg Center
08:22PM 51.8833 -98.9500 338° Northwest 210 242 24,000  Level Winnipeg Center
08:23PM 51.9333 -99.0000 328° Northwest 210 242 24,000  Level Winnipeg Center
08:24PM 51.9833 -99.0500 328° Northwest 210 242 24,000  Level Winnipeg Center
08:25PM 52.0333 -99.0833 338° Northwest 200 230 24,000  Level Winnipeg Center
08:26PM 52.0833 -99.1500 321° Northwest 200 230 24,000  Level Winnipeg Center
08:27PM 52.1333 -99.1667 348° North 200 230 24,000  Level Winnipeg Center
08:28PM 52.1833 -99.2333 321° Northwest 200 230 24,000  Level Winnipeg Center
08:29PM 52.2333 -99.2667 338° Northwest 200 230 24,000  Level Winnipeg Center
08:30PM 52.2833 -99.3167 329° Northwest 200 230 24,000  Level Winnipeg Center
08:31PM 52.3167 -99.3667 317° Northwest 210 242 24,000  Level Winnipeg Center
08:32PM 52.3833 -99.4000 343° North 200 230 24,000  Level Winnipeg Center
08:33PM 52.4167 -99.4667 309° West 200 230 24,000  Level Winnipeg Center
08:34PM 52.4667 -99.5000 338° Northwest 200 230 24,000  Level Winnipeg Center
08:35PM 52.5167 -99.5500 329° Northwest 200 230 24,000  Level Winnipeg Center
08:36PM 52.5667 -99.5833 338° Northwest 200 230 24,000  Level Winnipeg Center
08:37PM 52.6167 -99.6333 329° Northwest 200 230 24,000  Level Winnipeg Center
08:38PM 52.6667 -99.6667 338° Northwest 200 230 24,000  Level Winnipeg Center
08:39PM 52.7167 -99.7333 321° Northwest 200 230 24,000  Level Winnipeg Center
08:40PM 52.7667 -99.7667 338° Northwest 200 230 24,000  Level Winnipeg Center
08:41PM 52.8000 -99.8167 318° Northwest 200 230 24,000  Level Winnipeg Center
08:42PM 52.8333 -99.8500 329° Northwest 190 219 24,000  Level Winnipeg Center
08:43PM 52.8833 -99.9000 329° Northwest 190 219 24,000  Level Winnipeg Center
08:44PM 52.9333 -99.9667 321° Northwest 200 230 24,000  Level Winnipeg Center
08:45PM 52.9833 -100.0000 338° Northwest 200 230 24,000  Level Winnipeg Center
08:46PM 53.0333 -100.0333 338° Northwest 200 230 24,000  Level Winnipeg Center
08:47PM 53.0833 -100.0833 329° Northwest 200 230 24,000  Level Winnipeg Center
08:49PM 53.1833 -100.1833 329° Northwest 210 242 24,000  Level Winnipeg Center
08:51PM 53.3000 -100.3000 329° Northwest 180 207 24,000  Level Winnipeg Center
08:52PM 53.3333 -100.3333 329° Northwest 210 242 24,000  Level Winnipeg Center
08:53PM 53.3833 -100.3833 329° Northwest 190 219 24,000  Level Winnipeg Center
08:54PM 53.4333 -100.4167 338° Northwest 180 207 24,000  Level Winnipeg Center
08:55PM 53.4833 -100.4500 338° Northwest 190 219 24,000  Level Winnipeg Center
08:56PM 53.5333 -100.5167 322° Northwest 200 230 24,000  Level Winnipeg Center
08:57PM 53.5667 -100.5667 318° Northwest 200 230 24,000 -240 Level Winnipeg Center
08:58PM 53.6167 -100.6000 338° Northwest 200 230 23,600 -780 Descending Winnipeg Center
08:59PM 53.6667 -100.6667 322° Northwest 220 253 22,500 -1,200 Descending Winnipeg Center
09:00PM 53.7333 -100.7333 329° Northwest 240 276 21,200 -1,260 Descending Winnipeg Center
09:01PM 53.7833 -100.8167 315° West 250 288 20,000 -1,260 Descending Winnipeg Center
09:02PM 53.8500 -100.8833 329° Northwest 260 299 18,700 -1,320 Descending Winnipeg Center
09:03PM 53.9000 -100.9500 322° Northwest 250 288 17,400 -1,260 Descending Winnipeg Center
09:04PM 53.9667 -101.0000 336° Northwest 220 253 16,200 -1,200 Descending Winnipeg Center
09:06PM 54.0392 -101.0224 330° Northwest  Level FlightAware Approximate
09:13PM 54.3737 -101.3599 327° Northwest  Level FlightAware Approximate
09:14PM 54.4201 -101.4120 327° Northwest  Level FlightAware Approximate
09:15PM 54.4665 -101.4643 327° Northwest  Level FlightAware Approximate
09:16PM 54.5139 -101.5139 330° Northwest  Level FlightAware Approximate
09:17PM 54.5619 -101.5619 330° Northwest  Level FlightAware Approximate
09:18PM 54.6099 -101.6099 330° Northwest  Level FlightAware Approximate
09:19PM 54.6579 -101.6579 330° Northwest  Level FlightAware Approximate
09:20PM 54.6667 -101.6667 330° Northwest  Level FlightAware Approximate
09:21PM 54.6781 -101.6817 330° Northwest  Level Estimated
09:22PM 54.6781 -101.6817 330° Northwest  Level Estimated
09:23PM 54.6781 -101.6817 330° Northwest  Level Estimated
09:24PM 54.6781 -101.6817 330° Northwest  Level Estimated
09:25PM 54.6781 -101.6817 330° Northwest  Level Estimated
09:26PM 54.6781 -101.6817 330° Northwest  Level Estimated
09:27PM 54.6781 -101.6817 330° Northwest  Level Estimated
09:28PM 54.6781 -101.6817 330° Northwest  Level Estimated
09:29PM 54.6781 -101.6817 330° Northwest  Level Estimated
09:30PM 54.6781 -101.6817 330° Northwest  Level Estimated